Time;durP1;ratioP1;P1;durP2;ratioP2;P2;SDS_P1;SDS_P2;PMS_P1;PMS_P2;Temp;Humidity;BMP_temperature;BMP_pressure;BME280_temperature;BME280_humidity;BME280_pressure;Samples;Min_cycle;Max_cycle;Signal;HPM_P1;HPM_P2
2023/10/09 00:03:23;;;;;;;16.50;5.55;;;14.60;97.20;;;;;;4968350;28;20093;-76
2023/10/09 00:05:53;;;;;;;26.88;5.68;;;14.60;97.30;;;;;;4973593;28;20106;-76
2023/10/09 00:11:29;;;;;;;21.70;5.93;;;14.50;97.60;;;;;;4984426;28;20034;-79
2023/10/09 00:13:58;;;;;;;25.40;6.18;;;14.50;97.80;;;;;;4984052;28;20095;-78
2023/10/09 00:16:34;;;;;;;24.13;6.15;;;14.40;97.90;;;;;;4981799;28;20090;-81
2023/10/09 00:21:50;;;;;;;21.25;5.45;;;14.30;98.00;;;;;;4984823;28;20077;-80
2023/10/09 00:24:23;;;;;;;23.98;4.90;;;14.30;98.10;;;;;;4983525;28;20026;-78
2023/10/09 00:26:49;;;;;;;21.20;5.68;;;14.30;98.20;;;;;;4983413;28;20023;-78
2023/10/09 00:29:21;;;;;;;19.52;5.78;;;14.30;98.00;;;;;;4986936;28;20025;-78
2023/10/09 00:32:13;;;;;;;33.60;6.90;;;14.30;97.90;;;;;;4985461;28;20030;-77
2023/10/09 00:34:42;;;;;;;21.40;6.15;;;14.20;97.80;;;;;;4987450;28;20023;-77
2023/10/09 00:37:17;;;;;;;30.58;5.93;;;14.30;97.60;;;;;;4984919;28;20034;-78
2023/10/09 00:39:43;;;;;;;26.13;5.38;;;14.20;97.50;;;;;;4980077;28;20037;-77
2023/10/09 00:42:12;;;;;;;23.35;6.00;;;14.20;97.50;;;;;;4983707;28;20034;-77
2023/10/09 00:44:48;;;;;;;21.45;6.03;;;14.10;97.60;;;;;;4989530;28;20383;-77
2023/10/09 00:47:26;;;;;;;23.73;6.03;;;14.10;97.60;;;;;;4985165;28;20501;-76
2023/10/09 00:52:51;;;;;;;28.63;6.03;;;14.10;97.60;;;;;;4969266;28;20431;-77
2023/10/09 00:55:27;;;;;;;22.50;5.45;;;14.10;97.80;;;;;;4985247;28;20042;-77
2023/10/09 00:58:09;;;;;;;20.95;5.63;;;14.10;98.10;;;;;;4983398;28;20055;-77
2023/10/09 01:03:21;;;;;;;19.58;5.38;;;14.00;98.50;;;;;;4989792;28;20031;-78
2023/10/09 01:05:58;;;;;;;21.55;6.63;;;14.00;98.70;;;;;;4986870;28;20387;-77
2023/10/09 01:08:43;;;;;;;23.27;6.18;;;14.00;98.80;;;;;;4984230;28;20055;-77
2023/10/09 01:11:18;;;;;;;18.55;6.20;;;14.00;98.90;;;;;;4980577;28;20431;-78
2023/10/09 01:16:15;;;;;;;30.13;7.00;;;14.00;99.00;;;;;;4982562;28;20439;-77
2023/10/09 01:18:43;;;;;;;25.35;6.72;;;13.90;99.00;;;;;;4980506;28;20031;-77
2023/10/09 01:21:12;;;;;;;28.65;5.72;;;13.90;99.10;;;;;;4990202;28;20054;-77
2023/10/09 01:26:47;;;;;;;24.95;5.85;;;13.90;99.60;;;;;;4986094;28;20122;-79
2023/10/09 01:29:14;;;;;;;26.63;6.90;;;13.90;99.30;;;;;;5000988;28;20027;-78
2023/10/09 01:37:05;;;;;;;25.70;6.35;;;13.70;99.50;;;;;;4976408;28;20023;-77
2023/10/09 01:39:30;;;;;;;30.70;7.50;;;13.70;99.70;;;;;;4982697;28;20027;-79
2023/10/09 01:42:09;;;;;;;24.95;6.57;;;13.70;99.80;;;;;;4984100;28;20441;-77
2023/10/09 01:44:35;;;;;;;28.80;6.63;;;13.70;99.80;;;;;;4981422;28;20046;-77
2023/10/09 01:47:07;;;;;;;24.40;6.32;;;13.70;99.80;;;;;;4997741;28;20026;-78
2023/10/09 01:49:41;;;;;;;27.40;6.07;;;13.60;99.70;;;;;;4983924;28;20041;-79
2023/10/09 01:52:16;;;;;;;30.27;6.18;;;13.60;99.80;;;;;;4985219;28;20394;-80
2023/10/09 01:54:49;;;;;;;26.30;5.68;;;13.60;99.90;;;;;;4984103;28;20043;-80
2023/10/09 01:57:24;;;;;;;21.80;5.72;;;13.60;99.90;;;;;;4981903;28;20035;-80
2023/10/09 01:59:59;;;;;;;21.25;5.53;;;13.50;99.90;;;;;;4984658;28;20022;-79
2023/10/09 02:02:33;;;;;;;25.35;6.28;;;13.50;99.90;;;;;;4984058;28;20035;-78
2023/10/09 02:05:24;;;;;;;27.00;6.65;;;13.50;99.90;;;;;;4988351;28;20031;-76
2023/10/09 02:07:53;;;;;;;20.75;6.38;;;13.50;99.90;;;;;;4986384;28;20027;-78
2023/10/09 02:12:58;;;;;;;22.50;6.53;;;13.50;99.90;;;;;;4986403;28;20030;-78
2023/10/09 02:26:40;;;;;;;25.58;5.50;;;13.60;99.90;;;;;;4982946;28;20047;-79
2023/10/09 02:31:40;;;;;;;26.55;5.18;;;13.60;99.90;;;;;;4983376;28;20027;-78
2023/10/09 02:34:10;;;;;;;22.88;5.65;;;13.60;99.90;;;;;;4982324;28;20639;-78
2023/10/09 02:39:43;;;;;;;24.73;5.97;;;13.60;99.90;;;;;;4983519;28;20041;-79
2023/10/09 02:44:46;;;;;;;23.17;5.97;;;13.60;99.90;;;;;;4981667;28;20010;-78
2023/10/09 02:47:29;;;;;;;23.10;5.70;;;13.60;99.90;;;;;;4989122;28;20084;-79
2023/10/09 02:50:06;;;;;;;31.60;7.10;;;13.60;99.90;;;;;;4985874;28;20022;-78
2023/10/09 02:52:40;;;;;;;23.70;5.55;;;13.60;99.90;;;;;;4987402;28;20031;-78
2023/10/09 02:55:13;;;;;;;23.27;5.88;;;13.60;99.90;;;;;;4984487;23;20050;-77
2023/10/09 02:57:41;;;;;;;29.38;6.70;;;13.60;99.90;;;;;;4974549;28;20061;-75
2023/10/09 03:00:18;;;;;;;25.33;6.22;;;13.60;99.90;;;;;;4974503;28;20023;-77
2023/10/09 03:02:50;;;;;;;22.08;5.60;;;13.60;99.90;;;;;;4973064;28;20030;-76
2023/10/09 03:05:16;;;;;;;21.23;5.50;;;13.60;99.90;;;;;;4991413;28;20050;-75
2023/10/09 03:07:49;;;;;;;25.70;6.20;;;13.70;99.90;;;;;;4993391;28;20042;-75
2023/10/09 03:10:23;;;;;;;22.75;6.28;;;13.60;99.90;;;;;;4993594;28;20018;-75
2023/10/09 03:12:52;;;;;;;19.85;5.00;;;13.60;99.90;;;;;;4993532;28;20045;-76
2023/10/09 03:15:22;;;;;;;21.88;5.18;;;13.60;99.90;;;;;;4993665;28;20028;-75
2023/10/09 03:17:48;;;;;;;19.75;6.03;;;13.60;99.90;;;;;;4993506;28;20034;-75
2023/10/09 03:20:22;;;;;;;21.88;5.88;;;13.60;99.90;;;;;;4993331;28;20081;-75
2023/10/09 03:22:49;;;;;;;19.92;5.63;;;13.60;99.90;;;;;;4992020;28;20481;-75
2023/10/09 03:25:16;;;;;;;21.05;5.93;;;13.60;99.90;;;;;;4991576;28;20031;-75
2023/10/09 03:27:45;;;;;;;26.10;5.18;;;13.60;99.90;;;;;;4993319;28;20027;-74
2023/10/09 03:30:16;;;;;;;20.77;5.10;;;13.50;99.90;;;;;;4993196;28;20046;-75
2023/10/09 03:32:50;;;;;;;22.10;5.80;;;13.50;99.90;;;;;;4992230;28;20030;-75
2023/10/09 03:35:23;;;;;;;20.08;5.45;;;13.50;99.90;;;;;;4993486;28;20128;-75
2023/10/09 03:37:57;;;;;;;19.33;5.22;;;13.50;99.90;;;;;;4993006;28;20033;-75
2023/10/09 03:40:25;;;;;;;26.75;5.20;;;13.50;99.90;;;;;;4992683;28;20026;-75
2023/10/09 03:43:04;;;;;;;25.83;5.50;;;13.50;99.90;;;;;;4992921;28;20077;-75
2023/10/09 03:45:35;;;;;;;21.58;5.15;;;13.60;99.90;;;;;;4991608;28;20029;-75
2023/10/09 03:48:11;;;;;;;19.15;5.47;;;13.60;99.90;;;;;;4993093;28;20061;-75
2023/10/09 03:50:37;;;;;;;19.40;5.13;;;13.60;99.90;;;;;;4973634;28;20015;-74
2023/10/09 03:53:06;;;;;;;17.10;4.80;;;13.60;99.90;;;;;;4973365;28;20035;-75
2023/10/09 03:55:37;;;;;;;25.25;4.90;;;13.60;99.90;;;;;;4973438;28;20081;-74
2023/10/09 03:58:04;;;;;;;22.83;5.40;;;13.60;99.90;;;;;;4988372;28;20448;-74
2023/10/09 04:00:44;;;;;;;25.50;5.90;;;13.60;99.90;;;;;;4972030;28;20050;-74
2023/10/09 04:03:11;;;;;;;19.80;4.55;;;13.60;99.90;;;;;;4973214;28;20026;-74
2023/10/09 04:05:40;;;;;;;18.77;4.82;;;13.60;99.90;;;;;;4985367;28;20050;-73
2023/10/09 04:08:13;;;;;;;18.42;4.18;;;13.70;99.90;;;;;;4992566;28;20027;-74
2023/10/09 04:10:51;;;;;;;20.10;5.38;;;13.70;99.90;;;;;;4990996;28;20469;-75
2023/10/09 04:13:22;;;;;;;19.83;4.90;;;13.60;99.90;;;;;;4990805;28;20500;-75
2023/10/09 04:15:49;;;;;;;20.05;5.53;;;13.70;99.90;;;;;;4992275;28;20019;-74
2023/10/09 04:18:32;;;;;;;22.30;4.95;;;13.70;99.90;;;;;;4992205;28;20027;-74
2023/10/09 04:26:37;;;;;;;16.90;4.43;;;13.60;99.90;;;;;;4992206;28;20069;-74
2023/10/09 04:29:06;;;;;;;23.38;4.70;;;13.50;99.90;;;;;;4991969;28;20046;-74
2023/10/09 04:31:41;;;;;;;24.13;4.55;;;13.50;99.90;;;;;;4992092;28;20500;-74
2023/10/09 04:34:22;;;;;;;21.77;5.55;;;13.40;99.90;;;;;;4991586;28;20065;-73
2023/10/09 04:36:56;;;;;;;20.30;5.53;;;13.50;99.90;;;;;;4990678;28;20424;-75
2023/10/09 04:39:36;;;;;;;23.75;5.60;;;13.40;99.90;;;;;;4991996;28;20078;-74
2023/10/09 04:47:37;;;;;;;;;;;13.30;99.90;;;;;;4992780;28;20030;-74
2023/10/09 04:50:35;;;;;;;22.90;5.60;;;13.30;99.90;;;;;;4992471;28;19945;-75
2023/10/09 04:53:22;;;;;;;17.73;4.70;;;13.30;99.90;;;;;;4991552;28;20038;-75
2023/10/09 04:55:53;;;;;;;21.38;4.72;;;13.20;99.90;;;;;;4991060;28;20092;-74
2023/10/09 04:58:32;;;;;;;21.85;5.70;;;13.20;99.90;;;;;;4991394;28;20110;-73
2023/10/09 05:08:54;;;;;;;21.48;5.63;;;13.10;99.90;;;;;;4991789;28;20496;-74
2023/10/09 05:11:52;;;;;;;19.35;4.78;;;13.10;99.90;;;;;;4991971;28;20050;-72
2023/10/09 05:14:26;;;;;;;22.45;4.57;;;13.10;99.90;;;;;;4991530;28;20026;-75
2023/10/09 05:16:55;;;;;;;19.35;5.60;;;13.10;99.90;;;;;;4987079;28;20413;-75
2023/10/09 05:19:42;;;;;;;17.17;4.88;;;13.00;99.90;;;;;;4986400;28;20061;-76
2023/10/09 05:22:29;;;;;;;22.38;6.35;;;13.10;99.90;;;;;;4984136;28;20088;-75
2023/10/09 05:24:56;;;;;;;23.08;5.88;;;13.10;99.90;;;;;;4986337;28;20018;-75
2023/10/09 05:27:45;;;;;;;24.33;5.65;;;13.20;99.90;;;;;;4984979;28;20015;-76
2023/10/09 05:32:58;;;;;;;23.92;5.90;;;13.20;99.90;;;;;;4988276;28;20097;-75
2023/10/09 05:35:39;;;;;;;15.52;5.80;;;13.30;99.90;;;;;;4988735;28;20125;-75
2023/10/09 05:38:23;;;;;;;24.27;5.00;;;13.30;99.90;;;;;;4991102;28;20054;-77
2023/10/09 05:40:53;;;;;;;17.80;5.13;;;13.40;99.90;;;;;;4983279;28;20030;-75
2023/10/09 05:46:09;;;;;;;20.80;5.68;;;13.40;99.90;;;;;;4982781;28;20506;-73
2023/10/09 06:07:23;;;;;;;18.42;5.50;;;13.50;99.90;;;;;;4993402;28;20527;-73
2023/10/09 06:10:10;;;;;;;22.92;6.45;;;13.50;99.90;;;;;;4996406;28;20018;-74
2023/10/09 06:17:59;;;;;;;28.75;7.03;;;13.60;99.90;;;;;;4987434;28;20034;-71
2023/10/09 06:21:06;;;;;;;21.73;5.25;;;13.60;99.90;;;;;;4995241;28;20030;-74
2023/10/09 06:23:57;;;;;;;25.25;6.75;;;13.70;99.90;;;;;;4986194;28;20505;-74
2023/10/09 06:26:32;;;;;;;26.63;6.30;;;13.70;99.90;;;;;;4996377;28;20161;-73
2023/10/09 06:32:16;;;;;;;24.90;6.45;;;13.70;99.90;;;;;;4991209;28;20042;-72
2023/10/09 06:34:51;;;;;;;20.55;5.75;;;13.80;99.90;;;;;;4993247;28;20109;-72
2023/10/09 06:45:07;;;;;;;24.40;6.13;;;14.00;99.90;;;;;;4992013;28;20105;-73
2023/10/09 06:47:42;;;;;;;18.27;6.30;;;14.00;99.90;;;;;;4993411;28;20029;-73
2023/10/09 06:50:55;;;;;;;25.60;5.65;;;14.10;99.90;;;;;;4993190;28;20030;-72
2023/10/09 06:55:51;;;;;;;23.50;6.38;;;14.20;99.90;;;;;;4998192;28;20026;-73
2023/10/09 06:58:26;;;;;;;19.58;5.32;;;14.30;99.90;;;;;;4995066;28;20056;-73
2023/10/09 07:03:53;;;;;;;23.05;5.72;;;14.40;99.90;;;;;;4990991;28;20457;-74
2023/10/09 07:24:58;;;;;;;20.70;6.30;;;15.00;99.90;;;;;;4992597;28;20473;-74
2023/10/09 07:38:28;;;;;;;25.17;7.07;;;15.40;99.90;;;;;;4992232;28;20018;-73
2023/10/09 07:43:39;;;;;;;26.60;6.05;;;15.50;99.90;;;;;;4986911;28;20036;-73
2023/10/09 07:49:08;;;;;;;30.50;8.23;;;15.60;99.90;;;;;;4992417;28;20025;-73
2023/10/09 07:51:37;;;;;;;18.92;6.05;;;15.70;99.90;;;;;;4993401;28;20049;-74
2023/10/09 07:54:09;;;;;;;28.13;7.30;;;15.70;99.90;;;;;;4992202;28;20030;-73
2023/10/09 07:56:41;;;;;;;26.80;5.75;;;15.80;99.90;;;;;;4990859;28;20102;-74
2023/10/09 07:59:12;;;;;;;31.63;6.43;;;15.90;99.90;;;;;;4994033;28;20109;-73
2023/10/09 08:02:02;;;;;;;28.05;7.28;;;15.90;99.90;;;;;;4985032;28;20387;-74
2023/10/09 08:07:34;;;;;;;25.35;5.03;;;16.00;99.90;;;;;;4992121;28;20437;-74
2023/10/09 08:15:26;;;;;;;25.73;6.15;;;16.20;99.90;;;;;;4987613;28;20109;-74
2023/10/09 08:18:09;;;;;;;26.85;5.85;;;16.30;99.90;;;;;;4991810;28;20182;-73
2023/10/09 08:23:48;;;;;;;22.42;6.80;;;16.40;99.90;;;;;;4993798;28;20065;-73
2023/10/09 08:26:14;;;;;;;22.52;7.15;;;16.50;99.90;;;;;;4992112;28;20109;-73
2023/10/09 08:28:45;;;;;;;28.15;6.40;;;16.60;99.90;;;;;;4991626;28;20019;-74
2023/10/09 08:34:09;;;;;;;32.45;5.35;;;16.80;99.90;;;;;;4987324;28;20082;-73
2023/10/09 08:36:38;;;;;;;25.10;5.70;;;16.90;99.90;;;;;;4991991;28;20025;-73
2023/10/09 08:39:25;;;;;;;18.48;5.05;;;17.00;99.90;;;;;;4981302;28;20061;-74
2023/10/09 08:41:57;;;;;;;24.42;5.35;;;17.20;99.90;;;;;;4992066;28;20092;-73
2023/10/09 08:44:49;;;;;;;18.80;5.45;;;17.40;99.60;;;;;;4991952;28;20029;-73
2023/10/09 08:47:19;;;;;;;19.17;4.60;;;17.60;99.10;;;;;;4991582;28;20087;-73
2023/10/09 08:49:46;;;;;;;15.00;3.67;;;17.70;98.50;;;;;;4991805;28;20019;-74
2023/10/09 08:52:17;;;;;;;15.45;4.13;;;18.00;97.50;;;;;;4990540;28;20058;-73
2023/10/09 08:54:55;;;;;;;23.27;4.40;;;18.20;96.70;;;;;;4995415;23;20405;-73
2023/10/09 08:57:22;;;;;;;16.05;3.70;;;18.40;95.80;;;;;;4968965;28;20066;-72
2023/10/09 08:59:50;;;;;;;15.48;3.88;;;18.70;94.10;;;;;;4968558;28;20030;-73
2023/10/09 09:02:25;;;;;;;17.67;3.55;;;19.00;93.60;;;;;;4965267;28;20125;-73
2023/10/09 09:04:53;;;;;;;16.13;3.50;;;19.10;93.70;;;;;;4967058;28;20456;-72
2023/10/09 09:07:29;;;;;;;20.63;3.95;;;19.30;93.40;;;;;;4969112;28;20033;-72
2023/10/09 09:10:17;;;;;;;15.20;2.95;;;19.50;92.30;;;;;;4968661;28;20035;-72
2023/10/09 09:12:46;;;;;;;18.63;3.75;;;19.70;91.50;;;;;;4965690;28;20379;-72
2023/10/09 09:15:19;;;;;;;20.55;4.07;;;19.80;91.50;;;;;;4968594;28;20085;-73
2023/10/09 09:17:51;;;;;;;25.13;3.60;;;20.00;90.90;;;;;;4965808;28;20031;-73
2023/10/09 09:20:53;;;;;;;22.00;3.35;;;20.10;90.80;;;;;;4967248;28;20319;-73
2023/10/09 09:23:23;;;;;;;17.05;3.95;;;20.10;90.80;;;;;;4965861;28;20035;-73
2023/10/09 09:26:08;;;;;;;17.55;3.97;;;20.20;90.80;;;;;;4965543;28;20476;-73
2023/10/09 09:28:54;;;;;;;15.15;3.50;;;20.30;90.40;;;;;;4966285;28;20066;-73
2023/10/09 09:31:23;;;;;;;19.77;3.78;;;20.40;90.00;;;;;;4981928;28;20023;-75
2023/10/09 09:33:58;;;;;;;17.00;3.50;;;20.40;90.00;;;;;;4966477;28;20402;-73
2023/10/09 09:36:29;;;;;;;14.63;2.80;;;20.50;88.50;;;;;;4965961;28;20046;-73
2023/10/09 09:39:01;;;;;;;20.83;4.07;;;20.70;88.10;;;;;;4966018;28;20101;-73
2023/10/09 09:41:27;;;;;;;21.80;3.92;;;20.80;87.60;;;;;;4965735;28;20042;-73
2023/10/09 09:44:04;;;;;;;17.08;4.28;;;20.90;87.90;;;;;;4966359;28;20053;-73
2023/10/09 09:46:39;;;;;;;15.68;4.13;;;21.00;86.80;;;;;;4965750;28;20023;-73
2023/10/09 09:49:19;;;;;;;20.42;3.53;;;21.10;86.00;;;;;;4963744;28;20077;-73
2023/10/09 09:51:48;;;;;;;14.35;3.42;;;21.20;86.70;;;;;;4960520;28;20022;-73
2023/10/09 09:54:22;;;;;;;22.85;4.38;;;21.30;86.00;;;;;;4960965;28;20027;-73
2023/10/09 09:56:54;;;;;;;17.02;3.67;;;21.30;85.90;;;;;;4961954;28;20035;-73
2023/10/09 09:59:28;;;;;;;19.17;3.67;;;21.40;85.30;;;;;;4965869;28;20023;-72
2023/10/09 10:02:06;;;;;;;17.50;3.50;;;21.50;85.60;;;;;;4965530;28;20117;-73
2023/10/09 10:04:39;;;;;;;22.90;4.60;;;21.50;85.90;;;;;;4967638;28;20018;-73
2023/10/09 10:07:11;;;;;;;19.20;4.45;;;21.60;86.30;;;;;;4962675;28;20381;-73
2023/10/09 10:09:44;;;;;;;28.50;4.10;;;21.60;86.50;;;;;;4965426;28;20035;-73
2023/10/09 10:12:14;;;;;;;18.08;4.13;;;21.60;84.80;;;;;;4964445;28;20066;-72
2023/10/09 10:15:05;;;;;;;20.30;4.50;;;21.80;84.20;;;;;;4958837;28;20420;-72
2023/10/09 10:17:31;;;;;;;20.75;4.43;;;21.80;83.90;;;;;;4962518;28;20022;-73
2023/10/09 10:22:47;;;;;;;20.95;5.68;;;21.90;83.80;;;;;;4965556;28;20097;-72
2023/10/09 10:25:32;;;;;;;24.50;5.10;;;21.90;83.10;;;;;;4964387;28;20493;-73
2023/10/09 10:28:38;;;;;;;19.05;4.88;;;22.00;82.20;;;;;;4966832;28;20024;-73
2023/10/09 10:31:07;;;;;;;19.20;4.45;;;22.10;82.00;;;;;;4964642;28;20102;-73
2023/10/09 10:33:58;;;;;;;14.10;4.18;;;22.20;81.50;;;;;;4963679;28;20030;-72
2023/10/09 10:36:33;;;;;;;19.08;4.38;;;22.30;81.00;;;;;;4963021;28;21322;-73
2023/10/09 10:39:09;;;;;;;19.75;3.70;;;22.40;80.60;;;;;;4971897;28;20042;-73
2023/10/09 10:41:50;;;;;;;24.83;4.40;;;22.50;80.80;;;;;;4966489;28;20046;-73
2023/10/09 10:44:37;;;;;;;23.38;4.20;;;22.60;80.10;;;;;;4965951;28;20034;-73
2023/10/09 10:47:32;;;;;;;16.63;4.30;;;22.80;79.50;;;;;;4966084;28;20022;-72
2023/10/09 10:49:58;;;;;;;;;;;22.90;78.70;;;;;;4969237;28;20030;-73
2023/10/09 10:52:35;;;;;;;31.52;6.18;;;22.90;78.80;;;;;;4982113;28;20431;-73
2023/10/09 10:55:18;;;;;;;29.27;6.35;;;23.00;78.10;;;;;;4967779;28;20114;-73
2023/10/09 10:57:53;;;;;;;22.55;5.25;;;23.00;77.90;;;;;;4970535;28;20019;-73
2023/10/09 11:03:18;;;;;;;20.90;4.93;;;23.20;76.90;;;;;;4965002;28;21110;-73
2023/10/09 11:05:50;;;;;;;23.40;5.60;;;23.30;76.80;;;;;;4966561;28;20593;-73
2023/10/09 11:08:31;;;;;;;25.13;5.85;;;23.40;76.40;;;;;;4967402;28;20035;-72
2023/10/09 11:11:15;;;;;;;30.02;5.53;;;23.40;76.30;;;;;;4970211;28;20037;-73
2023/10/09 11:13:53;;;;;;;25.23;5.25;;;23.40;76.00;;;;;;4966044;28;20495;-73
2023/10/09 11:19:12;;;;;;;22.52;5.25;;;23.40;75.60;;;;;;4969886;28;20034;-73
2023/10/09 11:21:40;;;;;;;26.13;5.50;;;23.30;76.10;;;;;;4966556;28;20035;-73
2023/10/09 11:24:24;;;;;;;27.13;5.75;;;23.30;76.20;;;;;;4967351;28;20421;-73
2023/10/09 11:27:18;;;;;;;25.80;5.57;;;23.30;75.40;;;;;;4962992;28;20023;-74
2023/10/09 11:30:09;;;;;;;;;;;23.20;74.90;;;;;;4964407;28;20034;-73
2023/10/09 11:32:41;;;;;;;22.27;5.70;;;23.20;75.40;;;;;;4969856;28;20319;-73
2023/10/09 11:35:28;;;;;;;18.85;5.43;;;23.20;75.70;;;;;;4966539;28;20502;-74
2023/10/09 11:37:59;;;;;;;24.60;6.10;;;23.20;75.40;;;;;;4971435;28;20053;-73
2023/10/09 11:40:49;;;;;;;21.35;4.63;;;23.20;75.40;;;;;;4966510;28;20029;-73
2023/10/09 11:43:24;;;;;;;28.23;5.28;;;23.20;75.20;;;;;;4965895;28;20027;-73
2023/10/09 11:45:56;;;;;;;25.77;5.50;;;23.20;74.90;;;;;;4968683;28;20041;-72
2023/10/09 11:48:31;;;;;;;26.95;5.80;;;23.20;75.30;;;;;;4970442;28;20107;-73
2023/10/09 11:54:00;;;;;;;23.95;5.03;;;23.20;75.40;;;;;;4966993;28;20023;-73
2023/10/09 11:56:32;;;;;;;25.70;4.28;;;23.30;75.70;;;;;;4961327;28;20074;-73
2023/10/09 11:58:58;;;;;;;23.52;5.20;;;23.20;75.80;;;;;;4968196;28;20109;-73
2023/10/09 12:01:26;;;;;;;26.92;6.13;;;23.20;75.90;;;;;;4966385;28;20379;-73
2023/10/09 12:03:53;;;;;;;28.95;5.60;;;23.20;76.00;;;;;;4986069;28;20077;-73
2023/10/09 12:06:32;;;;;;;18.98;4.50;;;23.20;76.20;;;;;;4969772;28;20057;-73
2023/10/09 12:09:00;;;;;;;22.75;5.43;;;23.20;76.20;;;;;;4969424;28;20019;-73
2023/10/09 12:11:29;;;;;;;19.80;4.25;;;23.20;75.80;;;;;;4961342;28;20121;-73
2023/10/09 12:14:01;;;;;;;26.17;4.90;;;23.10;75.90;;;;;;4983094;28;20022;-74
2023/10/09 12:16:33;;;;;;;20.35;4.25;;;23.10;76.40;;;;;;4968064;28;20057;-73
2023/10/09 12:18:59;;;;;;;23.55;5.65;;;23.00;76.50;;;;;;4965102;28;20034;-72
2023/10/09 12:21:27;;;;;;;25.88;5.97;;;23.00;76.80;;;;;;4962377;28;20114;-72
2023/10/09 12:23:59;;;;;;;21.48;4.63;;;22.90;76.90;;;;;;4968982;28;20039;-74
2023/10/09 12:26:25;;;;;;;22.95;5.70;;;22.80;77.30;;;;;;4967919;28;20077;-73
2023/10/09 12:28:51;;;;;;;28.50;5.72;;;22.80;77.10;;;;;;4963081;28;20058;-73
2023/10/09 12:31:33;;;;;;;21.92;5.45;;;22.80;76.60;;;;;;4964819;28;20022;-73
2023/10/09 12:33:59;;;;;;;21.52;4.55;;;22.70;76.70;;;;;;4966034;28;20031;-73
2023/10/09 12:36:28;;;;;;;24.13;6.10;;;22.70;77.20;;;;;;4970110;28;20058;-72
2023/10/09 12:38:58;;;;;;;26.50;5.78;;;22.60;78.80;;;;;;4990287;28;20026;-74
2023/10/09 12:41:28;;;;;;;22.73;5.25;;;22.60;78.90;;;;;;4969958;28;20132;-74
2023/10/09 12:43:59;;;;;;;27.90;5.22;;;22.60;79.00;;;;;;4969974;28;20085;-74
2023/10/09 12:46:25;;;;;;;20.42;5.25;;;22.60;79.30;;;;;;4970079;28;20019;-73
2023/10/09 12:48:57;;;;;;;20.58;4.38;;;22.60;79.10;;;;;;4973581;28;20019;-74
2023/10/09 12:51:29;;;;;;;35.63;6.32;;;22.60;79.10;;;;;;4969291;28;20023;-74
2023/10/09 12:53:58;;;;;;;25.63;5.05;;;22.60;78.80;;;;;;4971513;28;20034;-74
2023/10/09 12:56:32;;;;;;;24.05;5.05;;;22.60;79.00;;;;;;4971323;28;20026;-76
2023/10/09 12:59:20;;;;;;;33.53;5.65;;;22.70;79.50;;;;;;4967024;28;20031;-74
2023/10/09 13:01:49;;;;;;;22.98;5.03;;;22.80;78.60;;;;;;4972292;28;20485;-74
2023/10/09 13:04:16;;;;;;;25.63;4.53;;;22.80;78.00;;;;;;4967572;28;20062;-74
2023/10/09 13:06:45;;;;;;;25.08;5.05;;;23.00;77.30;;;;;;4969396;28;20026;-74
2023/10/09 13:09:15;;;;;;;22.80;4.40;;;23.00;76.90;;;;;;4972584;28;20034;-74
2023/10/09 13:11:42;;;;;;;25.85;5.32;;;23.10;76.20;;;;;;4970629;28;20046;-73
2023/10/09 13:14:27;;;;;;;22.30;5.30;;;23.20;76.10;;;;;;4969559;28;20334;-73
2023/10/09 13:16:53;;;;;;;25.17;5.05;;;23.40;76.00;;;;;;4972363;28;20034;-74
2023/10/09 13:19:27;;;;;;;30.90;7.13;;;23.40;76.00;;;;;;4971678;28;20035;-73
2023/10/09 13:22:03;;;;;;;20.48;5.00;;;23.60;75.50;;;;;;4970207;28;20058;-73
2023/10/09 13:24:29;;;;;;;26.92;5.97;;;23.60;75.60;;;;;;4967750;28;20034;-73
2023/10/09 13:27:04;;;;;;;19.08;4.78;;;23.70;74.70;;;;;;4971948;28;20105;-73
2023/10/09 13:29:33;;;;;;;25.85;6.13;;;23.90;73.60;;;;;;4971617;28;20038;-76
2023/10/09 13:32:02;;;;;;;22.55;6.47;;;24.00;73.20;;;;;;4965547;28;20029;-73
2023/10/09 13:34:33;;;;;;;17.70;4.55;;;23.90;73.10;;;;;;4971455;28;20030;-73
2023/10/09 13:37:11;;;;;;;20.42;4.82;;;24.00;73.00;;;;;;4967819;28;20103;-74
2023/10/09 13:39:39;;;;;;;20.98;5.03;;;24.10;72.50;;;;;;4970250;28;20035;-73
2023/10/09 13:42:16;;;;;;;29.55;6.03;;;24.10;72.70;;;;;;4970739;28;20041;-74
2023/10/09 13:44:42;;;;;;;22.25;4.68;;;24.00;72.00;;;;;;4970635;28;20608;-74
2023/10/09 13:47:18;;;;;;;24.17;6.20;;;24.10;72.40;;;;;;4967889;28;20023;-74
2023/10/09 13:49:54;;;;;;;29.35;6.22;;;24.00;72.70;;;;;;4966868;28;20034;-74
2023/10/09 13:52:21;;;;;;;27.38;6.07;;;24.10;72.60;;;;;;4968495;28;20046;-74
2023/10/09 13:54:49;;;;;;;19.45;5.18;;;24.10;72.50;;;;;;4965291;28;20415;-74
2023/10/09 13:57:22;;;;;;;25.02;6.38;;;24.10;71.80;;;;;;4972468;28;20163;-73
2023/10/09 13:59:55;;;;;;;24.45;5.70;;;24.10;71.50;;;;;;4971367;28;20093;-73
2023/10/09 14:02:21;;;;;;;;;;;24.10;71.40;;;;;;4965757;28;20055;-73
2023/10/09 14:05:03;;;;;;;25.75;4.97;;;24.10;71.10;;;;;;4968902;28;19977;-74
2023/10/09 14:07:29;;;;;;;23.33;4.43;;;24.10;71.40;;;;;;4967388;28;20035;-73
2023/10/09 14:10:25;;;;;;;23.58;5.60;;;24.10;71.30;;;;;;4969324;28;20035;-73
2023/10/09 14:12:54;;;;;;;19.20;4.95;;;24.00;71.10;;;;;;4972565;28;20019;-73
2023/10/09 14:15:23;;;;;;;21.67;6.20;;;24.00;71.20;;;;;;4966417;28;20015;-73
2023/10/09 14:17:55;;;;;;;22.70;4.70;;;24.00;71.30;;;;;;4966963;28;20036;-73
2023/10/09 14:20:31;;;;;;;28.38;5.80;;;23.90;71.60;;;;;;4969211;28;20101;-73
2023/10/09 14:23:05;;;;;;;24.15;4.95;;;23.80;72.50;;;;;;4966318;28;20760;-73
2023/10/09 14:25:32;;;;;;;22.92;4.85;;;23.80;71.20;;;;;;4964333;28;20106;-73
2023/10/09 14:28:01;;;;;;;22.50;5.07;;;23.80;70.00;;;;;;4963365;28;20050;-73
2023/10/09 14:30:59;;;;;;;21.75;4.88;;;23.80;70.30;;;;;;4964893;28;20050;-73
2023/10/09 14:33:22;;;;;;;19.63;5.05;;;23.80;70.30;;;;;;4965076;28;20043;-74
2023/10/09 14:35:54;;;;;;;25.88;5.85;;;23.90;70.20;;;;;;4969796;28;20039;-73
2023/10/09 14:38:26;;;;;;;23.58;5.07;;;24.00;69.00;;;;;;4968375;28;20045;-74
2023/10/09 14:40:55;;;;;;;18.13;5.47;;;24.00;69.30;;;;;;4969721;28;20031;-73
2023/10/09 14:43:27;;;;;;;18.02;4.72;;;24.00;69.40;;;;;;4968307;28;20027;-74
2023/10/09 14:45:57;;;;;;;18.92;5.28;;;24.00;69.70;;;;;;4968501;28;20139;-74
2023/10/09 14:48:25;;;;;;;27.95;5.97;;;24.00;69.30;;;;;;4963158;28;20498;-75
2023/10/09 14:50:53;;;;;;;21.33;5.88;;;24.00;69.60;;;;;;4966574;28;20184;-74
2023/10/09 14:53:19;;;;;;;22.08;5.43;;;24.00;69.60;;;;;;4962195;28;20931;-75
2023/10/09 14:55:47;;;;;;;25.75;5.55;;;24.10;69.50;;;;;;4963904;28;20050;-76
2023/10/09 14:58:13;;;;;;;18.83;5.85;;;24.10;69.30;;;;;;4966484;28;20027;-76
2023/10/09 15:00:46;;;;;;;15.75;3.88;;;24.10;69.40;;;;;;4970498;28;20415;-76
2023/10/09 15:03:14;;;;;;;13.93;4.32;;;24.10;69.30;;;;;;4962414;28;20394;-76
2023/10/09 15:05:41;;;;;;;25.67;6.18;;;24.10;69.20;;;;;;4967515;28;20043;-76
2023/10/09 15:08:11;;;;;;;23.48;5.68;;;24.10;69.30;;;;;;4967952;28;20043;-76
2023/10/09 15:10:55;;;;;;;24.80;5.32;;;24.10;69.10;;;;;;4968351;28;20046;-76
2023/10/09 15:13:27;;;;;;;;;;;24.10;68.30;;;;;;4970593;28;20045;-75
2023/10/09 15:15:54;;;;;;;23.17;6.30;;;24.10;68.40;;;;;;4969352;28;19984;-76
2023/10/09 15:18:23;;;;;;;22.02;4.55;;;24.00;69.10;;;;;;4966476;28;21004;-76
2023/10/09 15:20:51;;;;;;;22.17;6.47;;;24.00;68.70;;;;;;4970066;28;20401;-77
2023/10/09 15:23:19;;;;;;;18.23;5.10;;;24.00;68.90;;;;;;4963443;28;20034;-76
2023/10/09 15:25:49;;;;;;;15.95;4.75;;;23.90;69.00;;;;;;4966008;28;20033;-76
2023/10/09 15:28:15;;;;;;;32.50;5.53;;;23.90;68.80;;;;;;4971777;28;20478;-75
2023/10/09 15:30:42;;;;;;;18.77;5.65;;;23.90;69.00;;;;;;4965305;28;20739;-76
2023/10/09 15:33:10;;;;;;;20.80;4.72;;;23.90;68.80;;;;;;4967795;28;20038;-78
2023/10/09 15:35:37;;;;;;;25.50;4.72;;;23.90;69.00;;;;;;4965546;28;20086;-75
2023/10/09 15:38:03;;;;;;;17.55;4.60;;;23.80;69.10;;;;;;4971880;28;20030;-75
2023/10/09 15:40:36;;;;;;;27.40;6.30;;;23.80;68.80;;;;;;4971415;28;20026;-75
2023/10/09 15:43:05;;;;;;;19.15;5.22;;;23.80;69.00;;;;;;4974763;28;20122;-76
2023/10/09 15:45:31;;;;;;;17.95;4.70;;;23.70;69.20;;;;;;4968482;28;20031;-74
2023/10/09 15:48:04;;;;;;;18.70;5.25;;;23.70;69.20;;;;;;4969428;28;20201;-76
2023/10/09 15:50:34;;;;;;;20.92;5.47;;;23.60;68.90;;;;;;4986633;28;21019;-76
2023/10/09 15:53:02;;;;;;;22.77;4.90;;;23.60;69.10;;;;;;4970134;28;20042;-74
2023/10/09 15:55:28;;;;;;;24.98;5.80;;;23.50;69.40;;;;;;4963401;28;20513;-74
2023/10/09 15:58:03;;;;;;;17.15;4.05;;;23.50;69.70;;;;;;4968324;28;20416;-74
2023/10/09 16:00:31;;;;;;;16.77;4.95;;;23.40;70.10;;;;;;4965900;28;20577;-76
2023/10/09 16:02:57;;;;;;;21.67;4.65;;;23.40;70.40;;;;;;4969517;28;20034;-76